Les Avions

Webcam :

Nuit aéronautique

14 Nov 2018

Heure locale,
pour LFDL uniquement.

Lever du soleil aéronautique :07:33
Lever du soleil :08:03
Coucher du soleil :17:24
Coucher du soleil aéronautique :17:54

Metar

LFBI :
2018/11/14 14:30
LFBI 141430Z AUTO 16007KT CAVOK 19/13 Q1022 NOSIG
LFBI :
Poitiers, France (LFBI) 46-35N 000-19E 120M
Nov 14, 2018 - 09:30 AM EST / 2018.11.14 1430 UTC
Wind: from the SSE (160 degrees) at 8 MPH (7 KT):0
Visibility: greater than 7 mile(s):0
Temperature: 66 F (19 C)
Dew Point: 55 F (13 C)
Relative Humidity: 68%
Pressure (altimeter): 30.18 in. Hg (1022 hPa)
ob: LFBI 141430Z AUTO 16007KT CAVOK 19/13 Q1022 NOSIG
cycle: 14

Afficher le metar d'une autre station :
Code OACI :

Aéroclub de Loudun


Bellevue
86200 Loudun


Contacter Michel Richez (président)

  • Mail:michel.richez@free.fr
  • Tel:09-50-38-02-06
  • Mobile:06-52-73-09-01



agrandir le plan

Newsletter

Mon e-mail :